sensor_id;sensor_type;location;lat;lon;timestamp;pressure;altitude;pressure_sealevel;temperature;humidity
10978;BME280;5542;48.272;10.794;2023-02-20T00:01:51;96735.41;;;7.73;69.32
10978;BME280;5542;48.272;10.794;2023-02-20T00:04:17;96740.50;;;7.75;68.64
10978;BME280;5542;48.272;10.794;2023-02-20T00:06:44;96739.69;;;7.74;68.97
10978;BME280;5542;48.272;10.794;2023-02-20T00:09:11;96740.03;;;7.71;69.24
10978;BME280;5542;48.272;10.794;2023-02-20T00:11:37;96737.97;;;7.66;69.38
10978;BME280;5542;48.272;10.794;2023-02-20T00:14:04;96738.69;;;7.75;68.91
10978;BME280;5542;48.272;10.794;2023-02-20T00:16:32;96731.88;;;7.81;68.55
10978;BME280;5542;48.272;10.794;2023-02-20T00:18:59;96730.75;;;7.68;68.91
10978;BME280;5542;48.272;10.794;2023-02-20T00:21:25;96729.03;;;7.76;68.95
10978;BME280;5542;48.272;10.794;2023-02-20T00:23:52;96733.63;;;7.74;68.92
10978;BME280;5542;48.272;10.794;2023-02-20T00:26:19;96724.94;;;7.73;69.03
10978;BME280;5542;48.272;10.794;2023-02-20T00:28:45;96727.72;;;7.65;69.43
10978;BME280;5542;48.272;10.794;2023-02-20T00:31:13;96724.84;;;7.60;70.14
10978;BME280;5542;48.272;10.794;2023-02-20T00:33:42;96720.66;;;7.65;69.80
10978;BME280;5542;48.272;10.794;2023-02-20T00:36:14;96725.69;;;7.67;69.77
10978;BME280;5542;48.272;10.794;2023-02-20T00:38:41;96724.00;;;7.59;70.02
10978;BME280;5542;48.272;10.794;2023-02-20T00:41:08;96720.56;;;7.59;70.17
10978;BME280;5542;48.272;10.794;2023-02-20T00:43:36;96717.34;;;7.78;69.76
10978;BME280;5542;48.272;10.794;2023-02-20T00:46:03;96725.56;;;7.54;70.53
10978;BME280;5542;48.272;10.794;2023-02-20T00:48:30;96723.19;;;7.59;70.79
10978;BME280;5542;48.272;10.794;2023-02-20T00:50:57;96727.25;;;7.61;70.66
10978;BME280;5542;48.272;10.794;2023-02-20T00:53:24;96735.16;;;7.47;71.57
10978;BME280;5542;48.272;10.794;2023-02-20T00:55:51;96731.34;;;7.49;71.75
10978;BME280;5542;48.272;10.794;2023-02-20T00:58:17;96735.75;;;7.49;71.81
10978;BME280;5542;48.272;10.794;2023-02-20T01:00:44;96737.63;;;7.55;71.82
10978;BME280;5542;48.272;10.794;2023-02-20T01:03:10;96743.41;;;7.65;70.97
10978;BME280;5542;48.272;10.794;2023-02-20T01:05:37;96747.13;;;7.56;71.24
10978;BME280;5542;48.272;10.794;2023-02-20T01:08:05;96744.69;;;7.54;71.68
10978;BME280;5542;48.272;10.794;2023-02-20T01:10:32;96744.03;;;7.67;71.18
10978;BME280;5542;48.272;10.794;2023-02-20T01:12:58;96746.31;;;7.55;71.51
10978;BME280;5542;48.272;10.794;2023-02-20T01:15:25;96742.72;;;7.56;71.34
10978;BME280;5542;48.272;10.794;2023-02-20T01:17:51;96742.00;;;7.48;71.74
10978;BME280;5542;48.272;10.794;2023-02-20T01:20:18;96738.19;;;7.65;71.30
10978;BME280;5542;48.272;10.794;2023-02-20T01:22:44;96735.47;;;7.58;71.79
10978;BME280;5542;48.272;10.794;2023-02-20T01:25:12;96736.53;;;7.64;71.32
10978;BME280;5542;48.272;10.794;2023-02-20T01:27:39;96734.84;;;7.56;71.72
10978;BME280;5542;48.272;10.794;2023-02-20T01:30:07;96739.53;;;7.61;71.18
10978;BME280;5542;48.272;10.794;2023-02-20T01:32:33;96736.03;;;7.54;71.97
10978;BME280;5542;48.272;10.794;2023-02-20T01:35:00;96734.41;;;7.53;71.82
10978;BME280;5542;48.272;10.794;2023-02-20T01:37:27;96735.56;;;7.65;71.15
10978;BME280;5542;48.272;10.794;2023-02-20T01:39:53;96735.84;;;7.55;71.61
10978;BME280;5542;48.272;10.794;2023-02-20T01:42:23;96727.09;;;7.48;72.09
10978;BME280;5542;48.272;10.794;2023-02-20T01:44:50;96734.59;;;7.51;72.22
10978;BME280;5542;48.272;10.794;2023-02-20T01:47:18;96727.31;;;7.32;72.94
10978;BME280;5542;48.272;10.794;2023-02-20T01:49:48;96721.50;;;7.51;72.49
10978;BME280;5542;48.272;10.794;2023-02-20T01:52:20;96708.59;;;7.50;72.48
10978;BME280;5542;48.272;10.794;2023-02-20T01:54:52;96693.84;;;7.63;71.52
10978;BME280;5542;48.272;10.794;2023-02-20T01:57:24;96705.66;;;7.38;72.52
10978;BME280;5542;48.272;10.794;2023-02-20T01:59:53;96701.84;;;7.40;72.74
10978;BME280;5542;48.272;10.794;2023-02-20T02:02:23;96706.56;;;7.30;73.01
10978;BME280;5542;48.272;10.794;2023-02-20T02:04:50;96719.34;;;7.40;72.59
10978;BME280;5542;48.272;10.794;2023-02-20T02:07:17;96714.66;;;7.50;72.40
10978;BME280;5542;48.272;10.794;2023-02-20T02:09:49;96713.03;;;7.34;73.05
10978;BME280;5542;48.272;10.794;2023-02-20T02:12:16;96710.63;;;7.33;73.20
10978;BME280;5542;48.272;10.794;2023-02-20T02:14:44;96704.38;;;7.34;73.23
10978;BME280;5542;48.272;10.794;2023-02-20T02:17:33;96713.44;;;7.31;73.29
10978;BME280;5542;48.272;10.794;2023-02-20T02:20:37;96713.69;;;7.36;72.92
10978;BME280;5542;48.272;10.794;2023-02-20T02:23:51;96710.28;;;7.36;72.96
10978;BME280;5542;48.272;10.794;2023-02-20T02:27:05;96702.28;;;7.44;72.69
10978;BME280;5542;48.272;10.794;2023-02-20T02:29:59;96710.00;;;7.67;71.25
10978;BME280;5542;48.272;10.794;2023-02-20T02:32:46;96699.97;;;7.34;72.92
10978;BME280;5542;48.272;10.794;2023-02-20T02:35:30;96700.47;;;7.44;72.03
10978;BME280;5542;48.272;10.794;2023-02-20T02:38:12;96686.47;;;7.52;71.61
10978;BME280;5542;48.272;10.794;2023-02-20T02:40:48;96683.97;;;7.44;72.06
10978;BME280;5542;48.272;10.794;2023-02-20T02:43:20;96691.66;;;7.46;72.02
10978;BME280;5542;48.272;10.794;2023-02-20T02:45:51;96694.19;;;7.39;71.99
10978;BME280;5542;48.272;10.794;2023-02-20T02:48:22;96684.50;;;7.39;71.99
10978;BME280;5542;48.272;10.794;2023-02-20T02:50:53;96681.09;;;7.39;72.07
10978;BME280;5542;48.272;10.794;2023-02-20T02:53:23;96680.94;;;7.26;72.59
10978;BME280;5542;48.272;10.794;2023-02-20T02:55:50;96685.25;;;7.33;72.17
10978;BME280;5542;48.272;10.794;2023-02-20T02:58:17;96682.38;;;7.28;72.18
10978;BME280;5542;48.272;10.794;2023-02-20T03:00:47;96674.94;;;7.10;73.21
10978;BME280;5542;48.272;10.794;2023-02-20T03:03:20;96685.28;;;7.18;72.73
10978;BME280;5542;48.272;10.794;2023-02-20T03:05:53;96685.38;;;7.10;73.18
10978;BME280;5542;48.272;10.794;2023-02-20T03:08:33;96675.19;;;7.15;72.69
10978;BME280;5542;48.272;10.794;2023-02-20T03:11:05;96671.44;;;7.03;73.44
10978;BME280;5542;48.272;10.794;2023-02-20T03:13:35;96679.56;;;6.93;73.85
10978;BME280;5542;48.272;10.794;2023-02-20T03:16:27;96677.28;;;7.05;73.22
10978;BME280;5542;48.272;10.794;2023-02-20T03:18:57;96680.53;;;6.92;73.75
10978;BME280;5542;48.272;10.794;2023-02-20T03:21:27;96683.41;;;6.98;73.91
10978;BME280;5542;48.272;10.794;2023-02-20T03:24:00;96677.09;;;7.07;73.33
10978;BME280;5542;48.272;10.794;2023-02-20T03:26:30;96670.97;;;7.00;73.39
10978;BME280;5542;48.272;10.794;2023-02-20T03:29:00;96681.00;;;6.96;73.83
10978;BME280;5542;48.272;10.794;2023-02-20T03:31:32;96679.72;;;6.92;73.68
10978;BME280;5542;48.272;10.794;2023-02-20T03:36:30;96674.78;;;6.82;73.92
10978;BME280;5542;48.272;10.794;2023-02-20T03:39:20;96670.06;;;6.92;73.38
10978;BME280;5542;48.272;10.794;2023-02-20T03:42:07;96668.84;;;6.88;73.74
10978;BME280;5542;48.272;10.794;2023-02-20T03:44:54;96666.31;;;6.80;73.88
10978;BME280;5542;48.272;10.794;2023-02-20T03:47:24;96672.97;;;6.83;73.88
10978;BME280;5542;48.272;10.794;2023-02-20T03:49:53;96677.56;;;6.81;73.52
10978;BME280;5542;48.272;10.794;2023-02-20T03:52:21;96672.97;;;6.83;73.02
10978;BME280;5542;48.272;10.794;2023-02-20T03:54:50;96678.59;;;6.65;74.48
10978;BME280;5542;48.272;10.794;2023-02-20T03:57:19;96678.47;;;6.58;74.69
10978;BME280;5542;48.272;10.794;2023-02-20T03:59:50;96682.34;;;6.62;74.00
10978;BME280;5542;48.272;10.794;2023-02-20T04:02:21;96678.94;;;6.62;74.01
10978;BME280;5542;48.272;10.794;2023-02-20T04:04:51;96678.94;;;6.62;73.88
10978;BME280;5542;48.272;10.794;2023-02-20T04:07:23;96682.16;;;6.49;74.35
10978;BME280;5542;48.272;10.794;2023-02-20T04:09:53;96686.16;;;6.60;73.65
10978;BME280;5542;48.272;10.794;2023-02-20T04:12:23;96679.09;;;6.46;74.20
10978;BME280;5542;48.272;10.794;2023-02-20T04:14:53;96693.16;;;6.45;74.37
10978;BME280;5542;48.272;10.794;2023-02-20T04:17:24;96686.91;;;6.46;74.55
10978;BME280;5542;48.272;10.794;2023-02-20T04:19:54;96689.25;;;6.40;74.29
10978;BME280;5542;48.272;10.794;2023-02-20T04:22:24;96678.53;;;6.50;73.89
10978;BME280;5542;48.272;10.794;2023-02-20T04:24:56;96679.09;;;6.46;74.34
10978;BME280;5542;48.272;10.794;2023-02-20T04:27:24;96672.50;;;6.35;74.81
10978;BME280;5542;48.272;10.794;2023-02-20T04:29:51;96678.78;;;6.26;74.88
10978;BME280;5542;48.272;10.794;2023-02-20T04:32:18;96676.44;;;6.31;74.79
10978;BME280;5542;48.272;10.794;2023-02-20T04:34:44;96667.53;;;6.25;75.31
10978;BME280;5542;48.272;10.794;2023-02-20T04:37:13;96666.91;;;6.23;75.29
10978;BME280;5542;48.272;10.794;2023-02-20T04:39:40;96666.91;;;6.23;75.10
10978;BME280;5542;48.272;10.794;2023-02-20T04:42:08;96664.09;;;6.10;75.63
10978;BME280;5542;48.272;10.794;2023-02-20T04:44:34;96663.09;;;6.11;75.64
10978;BME280;5542;48.272;10.794;2023-02-20T04:47:03;96660.19;;;6.06;75.71
10978;BME280;5542;48.272;10.794;2023-02-20T04:49:30;96668.84;;;6.06;75.85
10978;BME280;5542;48.272;10.794;2023-02-20T04:51:57;96671.81;;;6.03;75.88
10978;BME280;5542;48.272;10.794;2023-02-20T04:54:24;96663.75;;;6.13;75.65
10978;BME280;5542;48.272;10.794;2023-02-20T04:56:50;96670.22;;;6.17;75.29
10978;BME280;5542;48.272;10.794;2023-02-20T04:59:19;96675.81;;;6.14;75.15
10978;BME280;5542;48.272;10.794;2023-02-20T05:01:45;96676.88;;;6.05;75.44
10978;BME280;5542;48.272;10.794;2023-02-20T05:04:16;96688.38;;;5.96;75.67
10978;BME280;5542;48.272;10.794;2023-02-20T05:06:45;96683.16;;;5.87;76.52
10978;BME280;5542;48.272;10.794;2023-02-20T05:09:12;96676.59;;;6.00;75.73
10978;BME280;5542;48.272;10.794;2023-02-20T05:11:39;96677.91;;;5.96;75.78
10978;BME280;5542;48.272;10.794;2023-02-20T05:14:06;96678.75;;;5.88;75.60
10978;BME280;5542;48.272;10.794;2023-02-20T05:16:36;96689.84;;;5.90;75.47
10978;BME280;5542;48.272;10.794;2023-02-20T05:19:02;96692.03;;;5.78;76.27
10978;BME280;5542;48.272;10.794;2023-02-20T05:21:29;96703.47;;;5.77;76.74
10978;BME280;5542;48.272;10.794;2023-02-20T05:24:14;96707.72;;;5.78;76.40
10978;BME280;5542;48.272;10.794;2023-02-20T05:26:40;96704.41;;;5.84;75.82
10978;BME280;5542;48.272;10.794;2023-02-20T05:29:07;96708.50;;;5.79;75.74
10978;BME280;5542;48.272;10.794;2023-02-20T05:31:37;96703.00;;;5.74;75.94
10978;BME280;5542;48.272;10.794;2023-02-20T05:34:04;96703.88;;;5.66;75.93
10978;BME280;5542;48.272;10.794;2023-02-20T05:36:31;96705.50;;;5.67;76.22
10978;BME280;5542;48.272;10.794;2023-02-20T05:38:58;96711.59;;;5.59;76.67
10978;BME280;5542;48.272;10.794;2023-02-20T05:41:24;96715.50;;;5.55;76.81
10978;BME280;5542;48.272;10.794;2023-02-20T05:43:52;96722.94;;;5.44;77.16
10978;BME280;5542;48.272;10.794;2023-02-20T05:46:22;96723.19;;;5.57;76.34
10978;BME280;5542;48.272;10.794;2023-02-20T05:48:50;96721.47;;;5.41;76.67
10978;BME280;5542;48.272;10.794;2023-02-20T05:51:22;96723.25;;;5.40;76.88
10978;BME280;5542;48.272;10.794;2023-02-20T05:53:49;96721.34;;;5.34;77.06
10978;BME280;5542;48.272;10.794;2023-02-20T05:56:16;96721.34;;;5.34;76.97
10978;BME280;5542;48.272;10.794;2023-02-20T05:58:42;96715.75;;;5.46;76.52
10978;BME280;5542;48.272;10.794;2023-02-20T06:01:15;96715.81;;;5.37;76.92
10978;BME280;5542;48.272;10.794;2023-02-20T06:03:42;96712.78;;;5.49;76.34
10978;BME280;5542;48.272;10.794;2023-02-20T06:06:10;96710.91;;;5.34;76.67
10978;BME280;5542;48.272;10.794;2023-02-20T06:08:38;96708.69;;;5.23;77.47
10978;BME280;5542;48.272;10.794;2023-02-20T06:11:05;96706.66;;;5.42;76.72
10978;BME280;5542;48.272;10.794;2023-02-20T06:13:32;96711.75;;;5.27;77.24
10978;BME280;5542;48.272;10.794;2023-02-20T06:15:58;96713.44;;;5.20;77.66
10978;BME280;5542;48.272;10.794;2023-02-20T06:18:25;96709.34;;;5.17;77.86
10978;BME280;5542;48.272;10.794;2023-02-20T06:20:51;96712.44;;;5.21;77.79
10978;BME280;5542;48.272;10.794;2023-02-20T06:23:19;96718.84;;;5.10;78.10
10978;BME280;5542;48.272;10.794;2023-02-20T06:25:46;96714.44;;;5.10;78.13
10978;BME280;5542;48.272;10.794;2023-02-20T06:28:12;96716.06;;;5.11;78.39
10978;BME280;5542;48.272;10.794;2023-02-20T06:30:39;96706.75;;;5.17;78.14
10978;BME280;5542;48.272;10.794;2023-02-20T06:33:05;96717.97;;;5.26;77.50
10978;BME280;5542;48.272;10.794;2023-02-20T06:35:32;96711.81;;;5.19;77.74
10978;BME280;5542;48.272;10.794;2023-02-20T06:37:59;96724.81;;;5.27;77.42
10978;BME280;5542;48.272;10.794;2023-02-20T06:40:27;96728.59;;;5.16;77.78
10978;BME280;5542;48.272;10.794;2023-02-20T06:42:54;96728.28;;;5.19;77.81
10978;BME280;5542;48.272;10.794;2023-02-20T06:45:20;96726.16;;;5.23;77.65
10978;BME280;5542;48.272;10.794;2023-02-20T06:47:47;96740.94;;;5.30;77.38
10978;BME280;5542;48.272;10.794;2023-02-20T06:50:13;96737.22;;;5.25;78.03
10978;BME280;5542;48.272;10.794;2023-02-20T06:52:40;96730.47;;;5.38;77.36
10978;BME280;5542;48.272;10.794;2023-02-20T06:55:07;96730.69;;;5.29;78.18
10978;BME280;5542;48.272;10.794;2023-02-20T06:57:34;96741.72;;;5.39;78.53
10978;BME280;5542;48.272;10.794;2023-02-20T07:00:03;96737.16;;;5.64;78.17
10978;BME280;5542;48.272;10.794;2023-02-20T07:02:29;96739.31;;;5.83;77.20
10978;BME280;5542;48.272;10.794;2023-02-20T07:04:56;96737.91;;;6.04;76.65
10978;BME280;5542;48.272;10.794;2023-02-20T07:07:23;96746.09;;;6.24;74.98
10978;BME280;5542;48.272;10.794;2023-02-20T07:09:49;96745.81;;;6.56;74.60
10978;BME280;5542;48.272;10.794;2023-02-20T07:12:16;96740.59;;;6.86;71.81
10978;BME280;5542;48.272;10.794;2023-02-20T07:14:43;96753.88;;;6.99;71.66
10978;BME280;5542;48.272;10.794;2023-02-20T07:17:10;96750.34;;;7.07;71.74
10978;BME280;5542;48.272;10.794;2023-02-20T07:19:37;96757.28;;;7.29;71.12
10978;BME280;5542;48.272;10.794;2023-02-20T07:22:03;96745.53;;;7.76;68.36
10978;BME280;5542;48.272;10.794;2023-02-20T07:24:30;96757.03;;;7.96;67.24
10978;BME280;5542;48.272;10.794;2023-02-20T07:26:57;96745.66;;;8.11;67.31
10978;BME280;5542;48.272;10.794;2023-02-20T07:29:23;96744.19;;;8.44;65.44
10978;BME280;5542;48.272;10.794;2023-02-20T07:31:51;96747.69;;;8.80;63.63
10978;BME280;5542;48.272;10.794;2023-02-20T07:34:18;96752.44;;;8.97;63.01
10978;BME280;5542;48.272;10.794;2023-02-20T07:36:45;96736.22;;;9.22;61.25
10978;BME280;5542;48.272;10.794;2023-02-20T07:39:12;96737.97;;;9.15;61.19
10978;BME280;5542;48.272;10.794;2023-02-20T07:41:38;96728.13;;;9.17;60.61
10978;BME280;5542;48.272;10.794;2023-02-20T07:44:05;96724.31;;;8.91;62.27
10978;BME280;5542;48.272;10.794;2023-02-20T07:46:32;96724.59;;;8.68;62.54
10978;BME280;5542;48.272;10.794;2023-02-20T07:49:01;96722.97;;;8.67;62.37
10978;BME280;5542;48.272;10.794;2023-02-20T07:51:27;96718.78;;;8.45;62.76
10978;BME280;5542;48.272;10.794;2023-02-20T07:53:54;96726.44;;;8.25;63.18
10978;BME280;5542;48.272;10.794;2023-02-20T07:56:21;96729.50;;;8.29;64.29
10978;BME280;5542;48.272;10.794;2023-02-20T07:58:49;96711.47;;;8.68;62.34
10978;BME280;5542;48.272;10.794;2023-02-20T08:01:16;96708.50;;;8.78;61.97
10978;BME280;5542;48.272;10.794;2023-02-20T08:03:43;96714.50;;;9.07;62.73
10978;BME280;5542;48.272;10.794;2023-02-20T08:06:11;96707.84;;;9.45;59.25
10978;BME280;5542;48.272;10.794;2023-02-20T08:08:38;96707.72;;;9.73;58.11
10978;BME280;5542;48.272;10.794;2023-02-20T08:11:04;96706.16;;;9.92;56.84
10978;BME280;5542;48.272;10.794;2023-02-20T08:13:31;96703.34;;;10.07;56.96
10978;BME280;5542;48.272;10.794;2023-02-20T08:15:58;96698.91;;;10.21;55.96
10978;BME280;5542;48.272;10.794;2023-02-20T08:18:24;96699.72;;;10.28;55.74
10978;BME280;5542;48.272;10.794;2023-02-20T08:20:51;96701.13;;;10.50;55.13
10978;BME280;5542;48.272;10.794;2023-02-20T08:23:20;96694.88;;;10.45;55.23
10978;BME280;5542;48.272;10.794;2023-02-20T08:25:47;96698.06;;;10.54;54.37
10978;BME280;5542;48.272;10.794;2023-02-20T08:28:14;96694.00;;;10.84;54.47
10978;BME280;5542;48.272;10.794;2023-02-20T08:30:41;96686.25;;;10.96;53.40
10978;BME280;5542;48.272;10.794;2023-02-20T08:33:07;96679.34;;;11.08;52.44
10978;BME280;5542;48.272;10.794;2023-02-20T08:35:35;96668.66;;;10.96;53.16
10978;BME280;5542;48.272;10.794;2023-02-20T08:38:02;96664.38;;;11.09;52.68
10978;BME280;5542;48.272;10.794;2023-02-20T08:40:31;96650.72;;;11.32;52.00
10978;BME280;5542;48.272;10.794;2023-02-20T08:42:58;96651.28;;;11.40;51.38
10978;BME280;5542;48.272;10.794;2023-02-20T08:45:25;96652.59;;;11.18;52.57
10978;BME280;5542;48.272;10.794;2023-02-20T08:47:55;96646.28;;;11.19;52.85
10978;BME280;5542;48.272;10.794;2023-02-20T08:50:25;96649.22;;;11.42;52.33
10978;BME280;5542;48.272;10.794;2023-02-20T08:52:52;96651.28;;;11.40;52.62
10978;BME280;5542;48.272;10.794;2023-02-20T08:55:18;96640.75;;;11.40;51.88
10978;BME280;5542;48.272;10.794;2023-02-20T08:57:46;96642.28;;;11.54;52.00
10978;BME280;5542;48.272;10.794;2023-02-20T09:00:14;96637.47;;;11.45;52.78
10978;BME280;5542;48.272;10.794;2023-02-20T09:02:41;96630.66;;;11.62;52.16
10978;BME280;5542;48.272;10.794;2023-02-20T09:05:08;96624.94;;;11.72;51.73
10978;BME280;5542;48.272;10.794;2023-02-20T09:07:35;96620.03;;;11.75;50.72
10978;BME280;5542;48.272;10.794;2023-02-20T09:10:02;96620.03;;;11.75;51.11
10978;BME280;5542;48.272;10.794;2023-02-20T09:12:29;96616.88;;;11.98;50.34
10978;BME280;5542;48.272;10.794;2023-02-20T09:14:58;96619.88;;;11.70;51.38
10978;BME280;5542;48.272;10.794;2023-02-20T09:17:25;96628.97;;;11.74;50.92
10978;BME280;5542;48.272;10.794;2023-02-20T09:19:51;96626.38;;;11.68;52.67
10978;BME280;5542;48.272;10.794;2023-02-20T09:22:22;96620.44;;;12.11;51.73
10978;BME280;5542;48.272;10.794;2023-02-20T09:24:50;96615.81;;;12.49;50.07
10978;BME280;5542;48.272;10.794;2023-02-20T09:27:16;96606.75;;;12.64;49.29
10978;BME280;5542;48.272;10.794;2023-02-20T09:29:43;96604.38;;;12.74;49.93
10978;BME280;5542;48.272;10.794;2023-02-20T09:32:12;96588.28;;;13.12;47.35
10978;BME280;5542;48.272;10.794;2023-02-20T09:34:39;96600.31;;;13.08;47.61
10978;BME280;5542;48.272;10.794;2023-02-20T09:37:05;96607.22;;;12.91;47.25
10978;BME280;5542;48.272;10.794;2023-02-20T09:39:32;96609.09;;;12.53;48.17
10978;BME280;5542;48.272;10.794;2023-02-20T09:42:06;96616.78;;;12.12;49.29
10978;BME280;5542;48.272;10.794;2023-02-20T09:44:42;96602.66;;;11.99;50.06
10978;BME280;5542;48.272;10.794;2023-02-20T09:47:26;96603.50;;;12.18;49.94
10978;BME280;5542;48.272;10.794;2023-02-20T09:49:56;96586.00;;;12.24;49.48
10978;BME280;5542;48.272;10.794;2023-02-20T09:52:25;96589.44;;;11.74;50.64
10978;BME280;5542;48.272;10.794;2023-02-20T09:54:58;96595.53;;;11.75;51.49
10978;BME280;5542;48.272;10.794;2023-02-20T09:57:28;96594.81;;;11.61;51.76
10978;BME280;5542;48.272;10.794;2023-02-20T10:00:02;96587.06;;;11.66;51.38
10978;BME280;5542;48.272;10.794;2023-02-20T10:02:35;96585.03;;;11.68;51.79
10978;BME280;5542;48.272;10.794;2023-02-20T10:05:20;96575.84;;;11.77;51.33
10978;BME280;5542;48.272;10.794;2023-02-20T10:07:49;96566.38;;;11.70;51.52
10978;BME280;5542;48.272;10.794;2023-02-20T10:10:19;96572.84;;;11.74;51.18
10978;BME280;5542;48.272;10.794;2023-02-20T10:12:56;96571.31;;;11.60;51.37
10978;BME280;5542;48.272;10.794;2023-02-20T10:15:32;96566.13;;;11.46;50.83
10978;BME280;5542;48.272;10.794;2023-02-20T10:18:12;96571.53;;;11.20;51.97
10978;BME280;5542;48.272;10.794;2023-02-20T10:20:47;96562.81;;;11.26;51.32
10978;BME280;5542;48.272;10.794;2023-02-20T10:23:22;96570.13;;;11.24;52.13
10978;BME280;5542;48.272;10.794;2023-02-20T10:25:53;96560.78;;;11.28;52.22
10978;BME280;5542;48.272;10.794;2023-02-20T10:28:22;96557.25;;;11.41;51.98
10978;BME280;5542;48.272;10.794;2023-02-20T10:30:55;96554.31;;;11.56;51.71
10978;BME280;5542;48.272;10.794;2023-02-20T10:33:29;96568.22;;;11.38;52.21
10978;BME280;5542;48.272;10.794;2023-02-20T10:36:01;96560.44;;;11.49;52.30
10978;BME280;5542;48.272;10.794;2023-02-20T10:38:33;96552.22;;;11.64;50.70
10978;BME280;5542;48.272;10.794;2023-02-20T10:41:04;96545.81;;;11.53;51.59
10978;BME280;5542;48.272;10.794;2023-02-20T10:43:40;96545.22;;;11.51;51.33
10978;BME280;5542;48.272;10.794;2023-02-20T10:46:13;96549.47;;;11.52;52.01
10978;BME280;5542;48.272;10.794;2023-02-20T10:48:43;96541.47;;;11.66;51.72
10978;BME280;5542;48.272;10.794;2023-02-20T10:51:13;96532.00;;;11.58;51.37
10978;BME280;5542;48.272;10.794;2023-02-20T10:53:45;96536.59;;;11.69;51.06
10978;BME280;5542;48.272;10.794;2023-02-20T10:56:15;96530.38;;;11.57;51.13
10978;BME280;5542;48.272;10.794;2023-02-20T10:58:48;96522.63;;;11.62;50.66
10978;BME280;5542;48.272;10.794;2023-02-20T11:01:20;96518.63;;;11.60;50.79
10978;BME280;5542;48.272;10.794;2023-02-20T11:03:55;96519.09;;;11.50;51.37
10978;BME280;5542;48.272;10.794;2023-02-20T11:06:29;96521.66;;;11.63;52.02
10978;BME280;5542;48.272;10.794;2023-02-20T11:08:56;96524.94;;;11.77;52.06
10978;BME280;5542;48.272;10.794;2023-02-20T11:11:29;96511.34;;;12.05;50.64
10978;BME280;5542;48.272;10.794;2023-02-20T11:13:58;96509.59;;;12.17;50.01
10978;BME280;5542;48.272;10.794;2023-02-20T11:16:29;96511.75;;;12.27;50.35
10978;BME280;5542;48.272;10.794;2023-02-20T11:19:07;96497.81;;;12.38;48.65
10978;BME280;5542;48.272;10.794;2023-02-20T11:21:36;96495.31;;;12.62;48.70
10978;BME280;5542;48.272;10.794;2023-02-20T11:24:33;96493.41;;;12.50;48.87
10978;BME280;5542;48.272;10.794;2023-02-20T11:27:09;96490.88;;;12.25;49.73
10978;BME280;5542;48.272;10.794;2023-02-20T11:29:46;96492.47;;;12.26;50.42
10978;BME280;5542;48.272;10.794;2023-02-20T11:32:35;96480.78;;;12.52;50.03
10978;BME280;5542;48.272;10.794;2023-02-20T11:35:22;96480.88;;;12.46;49.22
10978;BME280;5542;48.272;10.794;2023-02-20T11:38:21;96470.44;;;12.39;49.74
10978;BME280;5542;48.272;10.794;2023-02-20T11:41:07;96457.97;;;12.28;49.53
10978;BME280;5542;48.272;10.794;2023-02-20T11:43:40;96465.59;;;12.36;48.96
10978;BME280;5542;48.272;10.794;2023-02-20T11:46:12;96462.66;;;12.44;47.89
10978;BME280;5542;48.272;10.794;2023-02-20T11:48:57;96450.84;;;12.28;48.32
10978;BME280;5542;48.272;10.794;2023-02-20T11:51:34;96444.72;;;12.35;48.90
10978;BME280;5542;48.272;10.794;2023-02-20T11:54:09;96450.84;;;12.28;48.71
10978;BME280;5542;48.272;10.794;2023-02-20T11:56:56;96443.22;;;12.39;48.17
10978;BME280;5542;48.272;10.794;2023-02-20T11:59:33;96445.94;;;12.32;48.25
10978;BME280;5542;48.272;10.794;2023-02-20T12:02:21;96440.94;;;12.42;48.25
10978;BME280;5542;48.272;10.794;2023-02-20T12:05:05;96439.97;;;12.55;47.64
10978;BME280;5542;48.272;10.794;2023-02-20T12:07:37;96433.13;;;12.66;47.15
10978;BME280;5542;48.272;10.794;2023-02-20T12:10:20;96422.63;;;12.77;46.05
10978;BME280;5542;48.272;10.794;2023-02-20T12:12:49;96414.75;;;12.89;45.37
10978;BME280;5542;48.272;10.794;2023-02-20T12:15:19;96410.72;;;12.87;46.24
10978;BME280;5542;48.272;10.794;2023-02-20T12:20:36;96415.91;;;13.05;45.53
10978;BME280;5542;48.272;10.794;2023-02-20T12:23:15;96409.72;;;12.99;43.77
10978;BME280;5542;48.272;10.794;2023-02-20T12:25:54;96408.34;;;12.97;44.51
10978;BME280;5542;48.272;10.794;2023-02-20T12:28:31;96406.97;;;13.06;44.62
10978;BME280;5542;48.272;10.794;2023-02-20T12:31:15;96413.63;;;13.08;46.29
10978;BME280;5542;48.272;10.794;2023-02-20T12:33:56;96407.97;;;13.35;45.81
10978;BME280;5542;48.272;10.794;2023-02-20T12:36:31;96404.25;;;13.24;44.56
10978;BME280;5542;48.272;10.794;2023-02-20T12:39:06;96400.09;;;13.17;44.91
10978;BME280;5542;48.272;10.794;2023-02-20T12:41:51;96402.38;;;13.13;46.03
10978;BME280;5542;48.272;10.794;2023-02-20T12:44:39;96402.22;;;13.26;44.41
10978;BME280;5542;48.272;10.794;2023-02-20T12:47:18;96395.31;;;13.25;43.75
10978;BME280;5542;48.272;10.794;2023-02-20T12:50:04;96392.44;;;13.27;44.13
10978;BME280;5542;48.272;10.794;2023-02-20T12:52:48;96383.84;;;13.31;44.60
10978;BME280;5542;48.272;10.794;2023-02-20T12:55:23;96389.00;;;13.38;43.73
10978;BME280;5542;48.272;10.794;2023-02-20T12:58:04;96381.56;;;13.35;43.75
10978;BME280;5542;48.272;10.794;2023-02-20T13:00:33;96370.28;;;13.51;43.39
10978;BME280;5542;48.272;10.794;2023-02-20T13:03:07;96374.19;;;13.61;44.65
10978;BME280;5542;48.272;10.794;2023-02-20T13:05:37;96370.59;;;13.78;42.35
10978;BME280;5542;48.272;10.794;2023-02-20T13:08:09;96379.91;;;13.81;43.93
10978;BME280;5542;48.272;10.794;2023-02-20T13:10:47;96373.25;;;13.67;43.48
10978;BME280;5542;48.272;10.794;2023-02-20T13:13:16;96364.28;;;13.91;42.59
10978;BME280;5542;48.272;10.794;2023-02-20T13:15:49;96362.06;;;13.88;41.96
10978;BME280;5542;48.272;10.794;2023-02-20T13:18:22;96369.09;;;13.71;42.38
10978;BME280;5542;48.272;10.794;2023-02-20T13:20:52;96372.56;;;13.71;42.75
10978;BME280;5542;48.272;10.794;2023-02-20T13:23:27;96363.03;;;13.70;42.51
10978;BME280;5542;48.272;10.794;2023-02-20T13:25:56;96366.00;;;13.74;43.16
10978;BME280;5542;48.272;10.794;2023-02-20T13:28:32;96364.31;;;13.68;43.28
10978;BME280;5542;48.272;10.794;2023-02-20T13:31:10;96355.22;;;13.64;43.60
10978;BME280;5542;48.272;10.794;2023-02-20T13:33:38;96355.09;;;13.82;43.15